Aérodrome :
LOGIN :

S'inscrire | Disclaimer

   EN    FR    IT 

 










Légende :    VFR   VFR Marginal   IFR   IFR Intensif   IFR Très Intensif
Visi : 
Plafond : 
>= 8 km
>= 3000ft
5 à 8 km
1000 à 3000 ft
1500m à 5 km
500 à 1000 ft
800 à 1500m
200 à 500 ft
< 800m
< 200 ft
Symboles :   Orages  Brouillard  Fortes neiges  Fortes précipitations  Vent > 20 kt
SIGMETs :   Divers  Orages  Givrage  Turbulence  Onde Orograph.  Cendres Volcan.







- Altitude de l'aérodrome : 162 ft
- Code IATA : BOD
- Voir les cartes d'approche


LFBD - Bordeaux / Merignac

DERNIER METAR :
  • 181030Z AUTO VRB01KT 9999 FEW029 BKN096 BKN130 20/16 Q1011 NOSIG

METARs EXPIRÉS :
  • 181000Z AUTO 15004KT 120V180 9999 FEW035 BKN082 OVC100 19/16 Q1011 NOSIG
  • 180930Z AUTO 14007KT 9999 -RA FEW035 BKN084 OVC100 18/16 Q1011 NOSIG
  • 180900Z AUTO 14008KT CAVOK 18/16 Q1011 NOSIG
  • 180830Z AUTO 13009KT CAVOK 17/16 Q1011 NOSIG
  • 180800Z AUTO 13009KT CAVOK 17/16 Q1011 NOSIG

TAF TAF LFBD
Valide du 18 à 06h jusqu'au 19 à 12h UTC


180500Z 1806/1912 12010KT CAVOK
PROB30
TEMPO 1806/1808 BKN009
BECMG 1812/1814 28008KT BKN030
TEMPO 1814/1820 4000 SHRA BKN012
PROB30
TEMPO 1815/1817 24015G25KT 1500 TSRA BKN006 BKN020CB
BECMG 1820/1822 OVC007
PROB30
TEMPO 1900/1906 VRB03KT 2000 DZ BR OVC002 TX20/1812Z TN14/1906Z
ATIS : +33 5 57 92 81 04
Pas de NOTAMs connus pour ce terrain.
1 SIGMET publié pour la FIR Bordeaux (LFBB) :
 
Orages noyés dans la masse
LFBB SIGMET 1 VALID 181100/181300 LFPW
LFBB BORDEAUX FIR/UIR EMBD TS OBS AT 1100Z S OF N4245 AND W OF E00145 TOP FL360 MOV NE 5KT NC=



MET'MAP, la Météo Aéronautique d'un coup d'oeil ! - Copyright ORBIFLY Décembre 2007 - Disclaimer

ORBIFLY MET'MAP TEAM :

Programmation & Développement : Alexandra Zaïnal
Conception & Développement : Baudouin d'Aumeries
Co-Programmation & Développement : Marc-Olivier Méhu
Soutien technique & logistique : Manuel Goepfert

Contact : metmap@orbifly.com




SOURCES & CREDITS :

   NOAA